Crab Orchard, Tennessee
Current Conditions -  °F | °C
As of 8:53 AM on Thursday 18 Dec 2014 (Local Time) from KCSV Reporting Station
Scattered Clouds Scattered Clouds  
Wind Chill: 35°   Ceiling: Unl
Heat Index: 35°   Visibility: 7mi
Dew Point: 30°   Wind: 0mph
Humidity: 82%   Direction: NA
Pressure: 30.18"   Gusts: NA
Location:  35.91°N, 84.88°W
Report Text: KCSV 181453Z AUTO 00000KT 7SM FEW047 SCT060 02/M01 A3018 RMK AO2 SLP232 60001 T00171011 55002
Loading
Personal Weather Stations






























Interactive Weather Map New forecast layout! Learn more

10-Day Weather Forecast

Advertisements
Track Severe Weather on mobile